This is the latest recevied weather packets stored in our database for station/object N0YWB. If no packets are shown the sender has not sent any weather packets the latest 10 day(s).
| Time | Temp. | Humidity | Pressure | Rain* | Wind** | Luminosity | Snow |
|---|---|---|---|---|---|---|---|
| 1778236526 | 6.67° C | 72% | 1012.2 hPa | 0 mm | - | - | - |
| 1778231729 | 7.22° C | 65% | 1012 hPa | 0 mm | - | - | - |
| 1778227549 | 8.89° C | 59% | 1012.3 hPa | 0 mm | - | - | - |
| 1778223927 | 10° C | 59% | 1012.8 hPa | 0 mm | - | - | - |
| 1778223329 | 10.56° C | 58% | 1012.9 hPa | 0 mm | - | - | - |
| 1778215528 | 10.56° C | 77% | 1013.4 hPa | 0 mm | - | - | - |
| 1778214316 | 11.11° C | 75% | 1013.4 hPa | 0 mm | - | - | - |
| 1778213718 | 11.67° C | 78% | 1013.4 hPa | 0 mm | - | - | - |
| 1778211926 | 12.22° C | 74% | 1013 hPa | 0 mm | - | - | - |
| 1778210116 | 12.78° C | 71% | 1012.9 hPa | 0 mm | - | - | - |
| 1778209518 | 12.22° C | 76% | 1012.8 hPa | 0 mm | - | - | - |
| 1778208323 | 12.22° C | 78% | 1012.6 hPa | 0 mm | - | - | - |
| 1778201119 | 17.22° C | 55% | 1011.4 hPa | 0 mm | - | - | - |
| 1778197517 | 18.33° C | 47% | 1011.7 hPa | 0 mm | - | - | - |
| 1778196919 | 18.33° C | 48% | 1011.7 hPa | 0 mm | - | - | - |
| 1778195725 | 18.33° C | 47% | 1011.9 hPa | 0 mm | - | - | - |
| 1778186722 | 19.44° C | 48% | 1012.7 hPa | 0 mm | - | - | - |
| 1778183717 | 18.33° C | 50% | 1013.3 hPa | 0 mm | - | - | - |
| 1778183140 | 18.89° C | 52% | 1013.4 hPa | 0 mm | - | - | - |
| 1778179518 | 17.78° C | 61% | 1013.6 hPa | 0 mm | - | - | - |
| 1778178323 | 17.78° C | 64% | 1014 hPa | 0 mm | - | - | - |
| 1778171749 | 14.44° C | 68% | 1014.9 hPa | 0 mm | - | - | - |
| 1778171132 | 14.44° C | 69% | 1014.9 hPa | 0 mm | - | - | - |
| 1778169919 | 12.22° C | 72% | 1015.1 hPa | 0 mm | - | - | - |
| 1778161546 | 9.44° C | 78% | 1015.4 hPa | 0 mm | - | - | - |
* Rain latest hour (hover to see other rain measurements)
** Current wind speed in m/s (hover to see current wind gust speed)